createdAt,value
2022-08-29T00:00:23.302Z,11.02
2022-08-29T00:02:54.603Z,11.65
2022-08-29T00:05:24.935Z,10.55
2022-08-29T00:07:53.290Z,12.70
2022-08-29T00:10:21.391Z,11.45
2022-08-29T00:12:48.785Z,12.27
2022-08-29T00:15:16.685Z,13.10
2022-08-29T00:17:44.042Z,11.45
2022-08-29T00:20:13.700Z,13.93
2022-08-29T00:22:41.924Z,10.20
2022-08-29T00:25:09.492Z,14.32
2022-08-29T00:27:36.862Z,13.05
2022-08-29T00:30:05.760Z,11.38
2022-08-29T00:32:35.174Z,14.30
2022-08-29T00:35:06.863Z,11.90
2022-08-29T00:37:34.501Z,12.32
2022-08-29T00:40:05.383Z,9.98
2022-08-29T00:42:34.961Z,11.60
2022-08-29T00:45:04.905Z,13.43
2022-08-29T00:47:33.900Z,12.00
2022-08-29T00:50:01.260Z,10.15
2022-08-29T00:52:35.041Z,11.10
2022-08-29T00:55:03.480Z,10.02
2022-08-29T00:57:31.640Z,10.13
2022-08-29T00:59:59.458Z,12.25
2022-08-29T01:02:26.979Z,10.95
2022-08-29T01:04:54.701Z,12.15
2022-08-29T01:07:22.133Z,11.40
2022-08-29T01:09:49.576Z,12.25
2022-08-29T01:12:17.322Z,10.43
2022-08-29T01:14:53.301Z,9.43
2022-08-29T01:17:33.094Z,12.02
2022-08-29T01:20:18.976Z,10.32
2022-08-29T01:23:21.293Z,8.88
2022-08-29T01:25:50.105Z,10.95
2022-08-29T01:28:23.177Z,11.73
2022-08-29T01:31:14.745Z,9.07
2022-08-29T01:34:02.983Z,11.82
2022-08-29T01:36:54.183Z,13.10
2022-08-29T01:39:23.417Z,12.32
2022-08-29T01:41:51.501Z,10.32
2022-08-29T01:44:20.246Z,10.52
2022-08-29T01:46:49.122Z,11.20
2022-08-29T01:49:17.445Z,10.23
2022-08-29T01:51:44.863Z,10.90
2022-08-29T01:54:12.517Z,9.13
2022-08-29T01:56:44.613Z,11.25
2022-08-29T01:59:14.105Z,9.98
2022-08-29T02:01:44.970Z,10.85
2022-08-29T02:04:12.677Z,11.93
2022-08-29T02:06:40.277Z,11.70
2022-08-29T02:09:08.148Z,10.40
2022-08-29T02:11:39.909Z,10.18
2022-08-29T02:14:07.481Z,9.18
2022-08-29T02:16:37.277Z,15.07
2022-08-29T02:19:04.967Z,12.40
2022-08-29T02:21:32.596Z,9.57
2022-08-29T02:24:15.924Z,10.70
2022-08-29T02:26:48.565Z,13.30
2022-08-29T02:29:15.941Z,10.55
2022-08-29T02:31:43.552Z,10.35
2022-08-29T02:34:11.619Z,10.27
2022-08-29T02:36:39.072Z,11.30
2022-08-29T02:39:08.859Z,13.02
2022-08-29T02:41:36.487Z,9.43
2022-08-29T02:44:05.019Z,12.52
2022-08-29T02:46:32.457Z,12.70
2022-08-29T02:49:01.002Z,12.25
2022-08-29T02:51:30.574Z,10.90
2022-08-29T02:53:58.129Z,11.35
2022-08-29T02:56:25.885Z,10.63
2022-08-29T02:58:53.319Z,11.73
2022-08-29T03:01:21.924Z,10.77
2022-08-29T03:03:50.466Z,11.07
2022-08-29T03:06:18.640Z,9.82
2022-08-29T03:08:46.166Z,13.48
2022-08-29T03:11:14.114Z,13.43
2022-08-29T03:13:44.612Z,11.32
2022-08-29T03:16:12.320Z,10.63
2022-08-29T03:18:40.068Z,11.52
2022-08-29T03:21:15.003Z,13.32
2022-08-29T03:23:42.620Z,12.20
2022-08-29T03:26:10.057Z,13.32
2022-08-29T03:28:37.460Z,17.83
2022-08-29T03:31:05.253Z,12.80
2022-08-29T03:33:32.692Z,15.30
2022-08-29T03:36:00.064Z,13.40
2022-08-29T03:38:27.757Z,12.27
2022-08-29T03:40:55.666Z,12.68
2022-08-29T03:43:25.616Z,14.50
2022-08-29T03:45:53.793Z,13.10
2022-08-29T03:48:21.201Z,14.85
2022-08-29T03:50:51.219Z,15.30
2022-08-29T03:53:21.048Z,14.32
2022-08-29T03:55:48.424Z,15.25
2022-08-29T03:58:15.985Z,14.02
2022-08-29T04:00:46.087Z,15.18
2022-08-29T04:03:13.848Z,12.88
2022-08-29T04:05:41.432Z,16.08
2022-08-29T04:08:09.010Z,14.65
2022-08-29T04:10:38.213Z,14.82
2022-08-29T04:13:06.485Z,13.15
2022-08-29T04:15:33.886Z,15.00
2022-08-29T04:18:02.777Z,12.90
2022-08-29T04:20:31.989Z,16.10
2022-08-29T04:22:59.576Z,12.13
2022-08-29T04:25:28.305Z,15.52
2022-08-29T04:27:55.749Z,15.07
2022-08-29T04:30:24.802Z,14.05
2022-08-29T04:32:52.549Z,14.87
2022-08-29T04:35:20.025Z,13.90
2022-08-29T04:37:47.384Z,14.55
2022-08-29T04:40:16.459Z,14.25
2022-08-29T04:42:44.078Z,16.45
2022-08-29T04:45:15.841Z,13.88
2022-08-29T04:47:43.646Z,15.00
2022-08-29T04:50:13.058Z,12.73
2022-08-29T04:52:40.620Z,13.52
2022-08-29T04:55:08.812Z,11.77
2022-08-29T04:57:36.955Z,14.07
2022-08-29T05:00:06.113Z,13.48
2022-08-29T05:02:33.785Z,11.75
2022-08-29T05:05:01.232Z,12.80
2022-08-29T05:07:28.756Z,13.05
2022-08-29T05:10:01.898Z,11.57
2022-08-29T05:12:29.982Z,12.48
2022-08-29T05:14:57.664Z,11.45
2022-08-29T05:17:25.240Z,13.68
2022-08-29T05:19:52.935Z,12.60
2022-08-29T05:22:20.866Z,16.60
2022-08-29T05:24:48.917Z,14.18
2022-08-29T05:27:20.939Z,14.07
2022-08-29T05:29:49.412Z,14.40
2022-08-29T05:32:18.697Z,11.52
2022-08-29T05:34:46.291Z,13.05
2022-08-29T05:37:15.370Z,10.70
2022-08-29T05:39:42.758Z,13.62
2022-08-29T05:42:10.870Z,10.32
2022-08-29T05:44:38.851Z,10.93
2022-08-29T05:47:10.794Z,11.38
2022-08-29T05:49:39.204Z,13.02
2022-08-29T05:52:06.815Z,11.12
2022-08-29T05:54:38.335Z,11.38
2022-08-29T05:57:06.976Z,11.95
2022-08-29T05:59:35.398Z,12.07
2022-08-29T06:02:02.943Z,10.25
2022-08-29T06:04:30.624Z,12.37
2022-08-29T06:06:57.998Z,12.98
2022-08-29T06:09:25.737Z,10.85
2022-08-29T06:11:53.374Z,12.30
2022-08-29T06:14:20.839Z,8.60
2022-08-29T06:16:48.631Z,12.52
2022-08-29T06:19:16.290Z,10.15
2022-08-29T06:21:43.750Z,9.35
2022-08-29T06:24:11.301Z,9.73
2022-08-29T06:26:38.947Z,10.32
2022-08-29T06:29:07.560Z,13.85
2022-08-29T06:31:34.928Z,10.55
2022-08-29T06:34:04.948Z,11.77
2022-08-29T06:36:32.403Z,9.10
2022-08-29T06:39:01.115Z,10.23
2022-08-29T06:41:28.892Z,11.20
2022-08-29T06:43:59.514Z,9.52
2022-08-29T06:46:40.772Z,9.23
2022-08-29T06:49:12.884Z,10.32
2022-08-29T06:51:41.170Z,14.07
2022-08-29T06:54:09.885Z,10.15
2022-08-29T06:56:37.666Z,10.15
2022-08-29T06:59:05.760Z,10.02
2022-08-29T07:01:33.612Z,8.20
2022-08-29T07:04:02.638Z,9.18
2022-08-29T07:06:30.410Z,7.93
2022-08-29T07:08:58.372Z,10.93
2022-08-29T07:11:26.793Z,9.50
2022-08-29T07:13:56.624Z,9.60
2022-08-29T07:16:24.260Z,9.88
2022-08-29T07:18:53.742Z,7.72
2022-08-29T07:21:22.426Z,7.35
2022-08-29T07:23:50.699Z,11.98
2022-08-29T07:26:20.308Z,8.80
2022-08-29T07:28:48.576Z,10.13
2022-08-29T07:31:16.248Z,6.97
2022-08-29T07:33:43.665Z,9.90
2022-08-29T07:36:11.164Z,7.43
2022-08-29T07:38:39.470Z,7.43
2022-08-29T07:41:08.815Z,9.00
2022-08-29T07:43:36.350Z,7.90
2022-08-29T07:46:09.718Z,9.85
2022-08-29T07:48:37.952Z,7.45
2022-08-29T07:51:13.793Z,10.40
2022-08-29T07:53:41.188Z,7.28
2022-08-29T07:56:10.477Z,6.93
2022-08-29T07:58:37.921Z,8.48
2022-08-29T08:01:05.495Z,6.43
2022-08-29T08:03:33.559Z,7.93
2022-08-29T08:06:03.818Z,7.72
2022-08-29T08:08:34.527Z,7.72
2022-08-29T08:11:06.200Z,7.60
2022-08-29T08:13:34.436Z,6.90
2022-08-29T08:16:09.791Z,6.35
2022-08-29T08:18:37.642Z,9.88
2022-08-29T08:21:05.063Z,7.28
2022-08-29T08:23:32.492Z,7.28
2022-08-29T08:26:00.226Z,10.38
2022-08-29T08:28:29.163Z,8.00
2022-08-29T08:30:58.685Z,9.20
2022-08-29T08:33:28.884Z,7.45
2022-08-29T08:35:57.327Z,7.40
2022-08-29T08:38:24.802Z,8.55
2022-08-29T08:41:37.962Z,7.40
2022-08-29T08:44:26.964Z,7.90
2022-08-29T08:46:59.459Z,7.70
2022-08-29T08:50:09.924Z,7.95
2022-08-29T08:52:42.566Z,8.52
2022-08-29T08:55:29.644Z,9.43
2022-08-29T08:58:02.920Z,9.15
2022-08-29T09:00:35.071Z,9.85
2022-08-29T09:03:17.260Z,9.93
2022-08-29T09:05:51.846Z,9.85
2022-08-29T09:08:41.440Z,11.60
2022-08-29T09:11:19.883Z,11.70
2022-08-29T09:13:59.576Z,11.80
2022-08-29T09:16:31.632Z,11.38
2022-08-29T09:19:03.220Z,10.77
2022-08-29T09:21:46.450Z,11.27
2022-08-29T09:24:31.756Z,11.52
2022-08-29T09:29:28.301Z,12.02
2022-08-29T09:32:10.322Z,12.23
2022-08-29T09:35:06.818Z,12.68
2022-08-29T09:37:32.544Z,12.07
2022-08-29T09:40:12.723Z,12.88
2022-08-29T09:42:46.845Z,12.07
2022-08-29T09:45:20.709Z,13.27
2022-08-29T09:47:48.088Z,12.40
2022-08-29T09:50:21.904Z,11.98
2022-08-29T09:52:58.764Z,12.30
2022-08-29T09:55:45.116Z,12.73
2022-08-29T09:58:12.657Z,12.00
2022-08-29T10:00:42.093Z,11.32
2022-08-29T10:03:19.997Z,11.65
2022-08-29T10:05:47.833Z,12.82
2022-08-29T10:08:37.965Z,12.50
2022-08-29T10:11:28.340Z,12.15
2022-08-29T10:14:00.654Z,12.82
2022-08-29T10:16:27.964Z,14.13
2022-08-29T10:19:12.733Z,14.00
2022-08-29T10:22:02.952Z,12.85
2022-08-29T10:24:41.838Z,12.60
2022-08-29T10:27:35.454Z,12.32
2022-08-29T10:30:09.414Z,12.73
2022-08-29T10:32:51.755Z,13.20
2022-08-29T10:35:30.944Z,13.20
2022-08-29T10:38:09.461Z,13.95
2022-08-29T10:40:47.153Z,14.48
2022-08-29T10:43:33.370Z,13.10
2022-08-29T10:46:41.993Z,11.80
2022-08-29T10:49:25.000Z,13.62
2022-08-29T10:51:58.638Z,11.95
2022-08-29T10:55:02.497Z,12.50
2022-08-29T10:57:41.840Z,13.02
2022-08-29T11:00:15.854Z,11.77
2022-08-29T11:02:55.740Z,12.75
2022-08-29T11:05:27.220Z,11.18
2022-08-29T11:08:17.853Z,12.15
2022-08-29T11:10:51.742Z,10.95
2022-08-29T11:13:21.953Z,12.00
2022-08-29T11:16:02.333Z,11.00
2022-08-29T11:18:39.200Z,11.32
2022-08-29T11:21:16.151Z,10.88
2022-08-29T11:23:46.644Z,12.02
2022-08-29T11:26:23.019Z,11.80
2022-08-29T11:29:18.493Z,11.85
2022-08-29T11:32:12.056Z,10.65
2022-08-29T11:34:53.066Z,10.57
2022-08-29T11:37:48.282Z,10.43
2022-08-29T11:40:48.104Z,11.57
2022-08-29T11:43:18.546Z,10.68
2022-08-29T11:45:59.464Z,10.07
2022-08-29T11:48:40.914Z,10.32
2022-08-29T11:51:37.543Z,10.38
2022-08-29T11:54:24.946Z,10.57
2022-08-29T11:57:12.924Z,11.25
2022-08-29T11:59:49.240Z,10.15
2022-08-29T12:02:30.098Z,9.75
2022-08-29T12:05:04.347Z,12.50
2022-08-29T12:07:48.988Z,9.65
2022-08-29T12:10:19.693Z,9.63
2022-08-29T12:13:03.769Z,9.45
2022-08-29T12:15:37.454Z,10.52
2022-08-29T12:18:07.564Z,9.63
2022-08-29T12:20:48.058Z,9.25
2022-08-29T12:23:15.620Z,8.93
2022-08-29T12:28:56.225Z,8.95
2022-08-29T12:31:56.324Z,9.20
2022-08-29T12:34:44.384Z,8.57
2022-08-29T12:37:29.338Z,8.80
2022-08-29T12:39:59.677Z,9.40
2022-08-29T12:42:31.236Z,9.30
2022-08-29T12:45:13.726Z,9.45
2022-08-29T12:48:02.723Z,8.55
2022-08-29T12:50:37.762Z,9.07
2022-08-29T12:53:19.226Z,9.15
2022-08-29T12:55:48.641Z,8.95
2022-08-29T12:58:40.245Z,9.20
2022-08-29T13:01:17.282Z,9.95
2022-08-29T13:03:58.206Z,8.57
2022-08-29T13:06:25.607Z,9.30
2022-08-29T13:08:53.292Z,9.32
2022-08-29T13:11:23.993Z,8.85
2022-08-29T13:13:51.355Z,8.98
2022-08-29T13:16:37.023Z,9.60
2022-08-29T13:19:12.020Z,9.43
2022-08-29T13:21:39.774Z,8.80
2022-08-29T13:24:17.981Z,9.45
2022-08-29T13:27:01.065Z,8.98
2022-08-29T13:29:32.567Z,9.57
2022-08-29T13:32:26.744Z,10.25
2022-08-29T13:35:16.151Z,9.45
2022-08-29T13:37:46.010Z,10.02
2022-08-29T13:40:33.195Z,9.65
2022-08-29T13:43:01.029Z,9.95
2022-08-29T13:45:28.511Z,9.50
2022-08-29T13:48:02.209Z,9.25
2022-08-29T13:50:30.141Z,9.65
2022-08-29T13:52:57.653Z,9.32
2022-08-29T13:55:25.110Z,9.73
2022-08-29T13:57:53.231Z,9.00
2022-08-29T14:00:27.253Z,9.10
2022-08-29T14:03:03.015Z,9.07
2022-08-29T14:05:30.563Z,9.00
2022-08-29T14:07:57.910Z,8.57
2022-08-29T14:10:25.567Z,8.38
2022-08-29T14:12:52.950Z,8.80
2022-08-29T14:15:21.106Z,8.43
2022-08-29T14:17:48.766Z,8.50
2022-08-29T14:20:17.446Z,9.07
2022-08-29T14:22:45.096Z,10.30
2022-08-29T14:25:12.966Z,8.50
2022-08-29T14:27:40.476Z,9.02
2022-08-29T14:30:17.276Z,9.00
2022-08-29T14:32:44.994Z,9.18
2022-08-29T14:35:12.430Z,8.73
2022-08-29T14:37:55.421Z,9.15
2022-08-29T14:40:23.430Z,9.52
2022-08-29T14:42:53.148Z,9.68
2022-08-29T14:45:20.828Z,10.35
2022-08-29T14:47:48.570Z,9.77
2022-08-29T14:50:16.089Z,10.65
2022-08-29T14:52:43.776Z,9.63
2022-08-29T14:55:11.330Z,9.38
2022-08-29T14:57:38.916Z,10.02
2022-08-29T15:00:09.780Z,9.98
2022-08-29T15:02:37.229Z,10.10
2022-08-29T15:05:04.892Z,8.85
2022-08-29T15:07:32.582Z,10.13
2022-08-29T15:10:00.151Z,10.07
2022-08-29T15:12:29.036Z,10.85
2022-08-29T15:14:56.760Z,10.77
2022-08-29T15:17:24.136Z,10.48
2022-08-29T15:22:39.968Z,10.50
2022-08-29T15:25:07.771Z,10.88
2022-08-29T15:27:35.116Z,10.30
2022-08-29T15:30:03.027Z,9.88
2022-08-29T15:32:30.411Z,11.20
2022-08-29T15:34:57.985Z,10.18
2022-08-29T15:37:25.655Z,10.45
2022-08-29T15:39:55.042Z,9.95
2022-08-29T15:42:28.565Z,10.52
2022-08-29T15:44:58.146Z,9.32
2022-08-29T15:47:25.697Z,9.98
2022-08-29T15:49:54.562Z,9.98
2022-08-29T15:52:22.188Z,10.05
2022-08-29T15:54:49.636Z,10.13
2022-08-29T15:57:17.136Z,9.27
2022-08-29T15:59:57.618Z,10.82
2022-08-29T16:02:26.805Z,9.95
2022-08-29T16:04:56.980Z,9.75
2022-08-29T16:07:28.809Z,9.50
2022-08-29T16:10:05.780Z,9.93
2022-08-29T16:12:39.730Z,9.35
2022-08-29T16:15:09.858Z,10.60
2022-08-29T16:17:37.633Z,10.15
2022-08-29T16:20:10.592Z,10.25
2022-08-29T16:22:39.113Z,10.50
2022-08-29T16:25:07.680Z,10.93
2022-08-29T16:27:35.197Z,11.15
2022-08-29T16:30:03.677Z,11.10
2022-08-29T16:32:31.344Z,10.90
2022-08-29T16:34:58.760Z,11.65
2022-08-29T16:37:26.788Z,10.40
2022-08-29T16:39:54.888Z,19.33
2022-08-29T16:42:22.334Z,11.63
2022-08-29T16:44:50.012Z,11.52
2022-08-29T16:47:19.004Z,11.45
2022-08-29T16:49:47.713Z,11.20
2022-08-29T16:52:15.524Z,11.25
2022-08-29T16:54:42.930Z,11.27
2022-08-29T16:57:10.323Z,10.85
2022-08-29T16:59:37.986Z,11.00
2022-08-29T17:02:05.496Z,10.82
2022-08-29T17:04:33.606Z,10.25
2022-08-29T17:07:01.446Z,10.65
2022-08-29T17:09:28.781Z,9.68
2022-08-29T17:11:56.338Z,12.35
2022-08-29T17:14:24.283Z,10.77
2022-08-29T17:16:52.656Z,9.10
2022-08-29T17:19:20.490Z,10.43
2022-08-29T17:21:48.112Z,9.63
2022-08-29T17:24:15.512Z,9.40
2022-08-29T17:26:44.082Z,8.68
2022-08-29T17:29:11.871Z,9.55
2022-08-29T17:31:39.324Z,10.57
2022-08-29T17:34:07.478Z,9.07
2022-08-29T17:36:36.595Z,9.40
2022-08-29T17:39:05.214Z,9.60
2022-08-29T17:41:32.956Z,8.93
2022-08-29T17:44:03.195Z,9.48
2022-08-29T17:46:30.654Z,10.05
2022-08-29T17:48:58.047Z,9.35
2022-08-29T17:51:25.784Z,8.77
2022-08-29T17:53:53.226Z,8.63
2022-08-29T17:56:29.463Z,8.70
2022-08-29T17:58:58.541Z,7.68
2022-08-29T18:01:26.008Z,9.73
2022-08-29T18:03:59.932Z,8.25
2022-08-29T18:06:31.709Z,8.63
2022-08-29T18:08:59.975Z,7.80
2022-08-29T18:11:27.385Z,7.80
2022-08-29T18:13:55.262Z,8.95
2022-08-29T18:16:22.942Z,8.55
2022-08-29T18:18:51.590Z,7.72
2022-08-29T18:21:18.997Z,8.70
2022-08-29T18:23:46.701Z,7.97
2022-08-29T18:26:14.874Z,8.00
2022-08-29T18:28:42.289Z,8.38
2022-08-29T18:31:12.067Z,9.55
2022-08-29T18:34:00.137Z,7.90
2022-08-29T18:36:29.778Z,8.15
2022-08-29T18:38:57.130Z,9.83
2022-08-29T18:41:24.561Z,7.47
2022-08-29T18:43:52.201Z,7.50
2022-08-29T18:46:20.053Z,10.65
2022-08-29T18:48:47.607Z,8.02
2022-08-29T18:51:15.614Z,7.43
2022-08-29T18:53:43.026Z,7.35
2022-08-29T18:56:10.834Z,8.07
2022-08-29T18:58:38.892Z,7.10
2022-08-29T19:01:14.537Z,8.27
2022-08-29T19:03:43.748Z,7.97
2022-08-29T19:06:11.506Z,8.57
2022-08-29T19:08:39.422Z,14.85
2022-08-29T19:11:08.657Z,8.75
2022-08-29T19:13:37.549Z,7.70
2022-08-29T19:16:07.215Z,6.95
2022-08-29T19:18:35.882Z,8.70
2022-08-29T19:21:09.782Z,7.20
2022-08-29T19:23:39.495Z,7.50
2022-08-29T19:26:09.904Z,9.45
2022-08-29T19:28:37.528Z,7.55
2022-08-29T19:31:06.504Z,7.57
2022-08-29T19:33:35.064Z,7.12
2022-08-29T19:36:03.870Z,7.60
2022-08-29T19:38:31.460Z,8.52
2022-08-29T19:40:59.216Z,7.43
2022-08-29T19:43:29.084Z,9.18
2022-08-29T19:45:59.053Z,8.80
2022-08-29T19:48:27.416Z,7.78
2022-08-29T19:50:56.366Z,7.82
2022-08-29T19:53:26.276Z,9.40
2022-08-29T19:55:56.220Z,8.05
2022-08-29T19:58:31.321Z,8.63
2022-08-29T20:03:30.820Z,8.63
2022-08-29T20:05:59.539Z,7.53
2022-08-29T20:08:27.078Z,8.05
2022-08-29T20:10:56.887Z,8.95
2022-08-29T20:13:24.664Z,7.37
2022-08-29T20:15:52.517Z,8.80
2022-08-29T20:18:21.240Z,7.90
2022-08-29T20:20:50.161Z,7.85
2022-08-29T20:23:18.552Z,9.73
2022-08-29T20:25:46.252Z,8.40
2022-08-29T20:28:15.435Z,7.72
2022-08-29T20:30:43.397Z,6.87
2022-08-29T20:33:11.561Z,10.48
2022-08-29T20:35:58.369Z,8.63
2022-08-29T20:38:27.141Z,7.45
2022-08-29T20:40:54.597Z,7.80
2022-08-29T20:43:22.116Z,7.65
2022-08-29T20:45:49.889Z,8.10
2022-08-29T20:48:17.474Z,7.12
2022-08-29T20:50:44.934Z,7.75
2022-08-29T20:53:12.635Z,6.70
2022-08-29T20:55:42.455Z,8.77
2022-08-29T20:58:09.837Z,9.52
2022-08-29T21:00:37.542Z,7.85
2022-08-29T21:03:24.024Z,6.57
2022-08-29T21:05:51.645Z,9.55
2022-08-29T21:08:20.632Z,6.78
2022-08-29T21:10:48.264Z,6.93
2022-08-29T21:13:17.552Z,9.35
2022-08-29T21:15:45.247Z,7.30
2022-08-29T21:18:14.018Z,7.53
2022-08-29T21:20:54.415Z,7.55
2022-08-29T21:23:22.736Z,7.55
2022-08-29T21:25:57.987Z,7.95
2022-08-29T21:28:25.877Z,8.30
2022-08-29T21:30:54.443Z,8.57
2022-08-29T21:33:21.931Z,8.18
2022-08-29T21:35:50.170Z,6.70
2022-08-29T21:38:18.356Z,10.98
2022-08-29T21:40:50.847Z,9.40
2022-08-29T21:43:19.908Z,8.63
2022-08-29T21:45:47.890Z,6.22
2022-08-29T21:48:15.270Z,7.75
2022-08-29T21:50:43.172Z,11.12
2022-08-29T21:53:11.782Z,8.30
2022-08-29T21:55:39.137Z,7.22
2022-08-29T21:58:07.754Z,7.72
2022-08-29T22:00:35.720Z,6.85
2022-08-29T22:03:05.619Z,7.35
2022-08-29T22:05:33.050Z,6.95
2022-08-29T22:08:03.116Z,6.50
2022-08-29T22:10:33.392Z,8.77
2022-08-29T22:13:00.895Z,9.25
2022-08-29T22:15:47.108Z,6.72
2022-08-29T22:18:15.158Z,6.62
2022-08-29T22:20:43.001Z,6.78
2022-08-29T22:23:10.409Z,6.37
2022-08-29T22:25:38.119Z,7.05
2022-08-29T22:28:05.621Z,9.30
2022-08-29T22:30:33.247Z,6.72
2022-08-29T22:33:01.117Z,8.13
2022-08-29T22:35:28.754Z,7.90
2022-08-29T22:37:56.140Z,6.57
2022-08-29T22:40:23.942Z,8.52
2022-08-29T22:42:51.460Z,9.32
2022-08-29T22:45:18.910Z,8.05
2022-08-29T22:47:46.838Z,8.23
2022-08-29T22:50:17.169Z,6.45
2022-08-29T22:52:45.036Z,6.95
2022-08-29T22:55:15.082Z,6.60
2022-08-29T22:57:45.157Z,7.15
2022-08-29T23:00:19.206Z,7.25
2022-08-29T23:02:46.972Z,8.40
2022-08-29T23:05:15.101Z,8.95
2022-08-29T23:07:42.494Z,10.20
2022-08-29T23:10:10.164Z,8.40
2022-08-29T23:12:37.834Z,9.00
2022-08-29T23:15:06.550Z,8.82
2022-08-29T23:17:33.925Z,7.82
2022-08-29T23:20:01.677Z,7.30
2022-08-29T23:22:29.157Z,8.73
2022-08-29T23:24:58.796Z,8.85
2022-08-29T23:27:30.237Z,11.98
2022-08-29T23:29:58.533Z,8.45
2022-08-29T23:32:26.369Z,9.27
2022-08-29T23:34:54.016Z,9.18
2022-08-29T23:37:21.364Z,7.62
2022-08-29T23:39:57.886Z,10.98
2022-08-29T23:42:25.671Z,9.27
2022-08-29T23:44:53.124Z,7.53
2022-08-29T23:47:20.526Z,10.20
2022-08-29T23:49:48.294Z,10.23
2022-08-29T23:52:15.652Z,6.70
2022-08-29T23:54:43.110Z,7.85
2022-08-29T23:57:10.791Z,7.50
2022-08-29T23:59:56.771Z,8.43
